Time;durP1;ratioP1;P1;durP2;ratioP2;P2;SDS_P1;SDS_P2;PMS_P1;PMS_P2;Temp;Humidity;BMP_temperature;BMP_pressure;BME280_temperature;BME280_humidity;BME280_pressure;Samples;Min_cycle;Max_cycle;Signal;HPM_P1;HPM_P2
2023/03/27 00:01:57;;;;;;;3.72;1.60;;;;;;;;;;5071739;28;20037;-65
2023/03/27 00:04:23;;;;;;;3.72;1.58;;;;;;;;;;5071737;28;20130;-63
2023/03/27 00:06:49;;;;;;;3.75;1.23;;;;;;;;;;5071706;28;20024;-64
2023/03/27 00:09:15;;;;;;;4.88;1.52;;;;;;;;;;5071877;28;20416;-63
2023/03/27 00:11:42;;;;;;;5.28;1.52;;;;;;;;;;5071565;28;20085;-63
2023/03/27 00:14:08;;;;;;;4.97;1.73;;;;;;;;;;5071277;28;20087;-65
2023/03/27 00:16:34;;;;;;;4.55;1.63;;;;;;;;;;5072219;28;20036;-63
2023/03/27 00:19:00;;;;;;;7.13;1.58;;;;;;;;;;5071844;28;20095;-63
2023/03/27 00:21:27;;;;;;;3.30;1.38;;;;;;;;;;5071668;28;20113;-63
2023/03/27 00:23:53;;;;;;;3.95;1.50;;;;;;;;;;5071358;28;20435;-63
2023/03/27 00:26:20;;;;;;;5.78;1.77;;;;;;;;;;5071331;28;20447;-63
2023/03/27 00:28:46;;;;;;;3.60;1.10;;;;;;;;;;5070983;28;20381;-65
2023/03/27 00:31:13;;;;;;;3.13;1.20;;;;;;;;;;5071538;28;20377;-64
2023/03/27 00:33:40;;;;;;;2.95;1.30;;;;;;;;;;5071210;28;20028;-62
2023/03/27 00:36:06;;;;;;;3.63;1.48;;;;;;;;;;5070157;28;20035;-63
2023/03/27 00:38:32;;;;;;;4.28;1.23;;;;;;;;;;5071638;28;20040;-66
2023/03/27 00:40:59;;;;;;;4.82;1.50;;;;;;;;;;5069707;28;20469;-63
2023/03/27 00:43:27;;;;;;;4.18;1.95;;;;;;;;;;5071129;28;20402;-63
2023/03/27 00:46:00;;;;;;;6.07;1.48;;;;;;;;;;5070613;28;20048;-63
2023/03/27 00:48:26;;;;;;;4.88;1.48;;;;;;;;;;5071221;28;20021;-63
2023/03/27 00:50:52;;;;;;;4.32;1.42;;;;;;;;;;5070786;28;20036;-63
2023/03/27 00:53:21;;;;;;;4.25;1.02;;;;;;;;;;5071165;28;20103;-63
2023/03/27 00:55:48;;;;;;;3.75;1.30;;;;;;;;;;5071032;28;20036;-64
2023/03/27 00:58:22;;;;;;;2.88;1.17;;;;;;;;;;5070979;28;20435;-63
2023/03/27 01:00:50;;;;;;;3.60;1.10;;;;;;;;;;5070949;28;20024;-64
2023/03/27 01:03:17;;;;;;;3.78;1.20;;;;;;;;;;5071113;28;20029;-64
2023/03/27 01:05:43;;;;;;;4.45;1.65;;;;;;;;;;5070712;28;20071;-64
2023/03/27 01:08:10;;;;;;;3.88;1.17;;;;;;;;;;5071329;28;20046;-64
2023/03/27 01:10:39;;;;;;;4.38;1.25;;;;;;;;;;5070516;28;20064;-63
2023/03/27 01:13:23;;;;;;;3.33;1.25;;;;;;;;;;5071027;28;20082;-63
2023/03/27 01:16:08;;;;;;;6.00;1.63;;;;;;;;;;5070721;28;20493;-63
2023/03/27 01:18:48;;;;;;;4.78;1.60;;;;;;;;;;5071308;28;20503;-63
2023/03/27 01:21:32;;;;;;;2.08;0.90;;;;;;;;;;5070703;28;20032;-63
2023/03/27 01:24:10;;;;;;;3.13;1.10;;;;;;;;;;5070585;28;20025;-65
2023/03/27 01:26:56;;;;;;;5.07;1.38;;;;;;;;;;5070139;28;20111;-65
2023/03/27 01:29:41;;;;;;;3.35;1.08;;;;;;;;;;5070545;28;20112;-65
2023/03/27 01:32:35;;;;;;;2.95;1.10;;;;;;;;;;5070935;28;20029;-63
2023/03/27 01:35:10;;;;;;;4.10;1.15;;;;;;;;;;5071083;28;20020;-64
2023/03/27 01:37:55;;;;;;;3.05;1.15;;;;;;;;;;5070484;28;20028;-66
2023/03/27 01:40:24;;;;;;;3.85;1.10;;;;;;;;;;5070556;28;20037;-63
2023/03/27 01:42:54;;;;;;;2.45;0.90;;;;;;;;;;5070529;28;20023;-64
2023/03/27 01:45:26;;;;;;;4.40;1.25;;;;;;;;;;5070494;28;20037;-64
2023/03/27 01:47:55;;;;;;;4.03;1.05;;;;;;;;;;5070392;28;20023;-63
2023/03/27 01:50:26;;;;;;;2.35;1.10;;;;;;;;;;5070657;28;20024;-62
2023/03/27 01:53:04;;;;;;;2.50;1.48;;;;;;;;;;5070352;28;20065;-62
2023/03/27 01:55:33;;;;;;;2.03;0.90;;;;;;;;;;5070638;28;20033;-62
2023/03/27 01:58:17;;;;;;;3.42;0.98;;;;;;;;;;5072201;28;20021;-63
2023/03/27 02:00:45;;;;;;;1.95;0.88;;;;;;;;;;5074306;28;20058;-63
2023/03/27 02:03:32;;;;;;;3.05;0.95;;;;;;;;;;5074298;28;20392;-63
2023/03/27 02:06:01;;;;;;;3.17;0.90;;;;;;;;;;5070445;28;20067;-64
2023/03/27 02:08:31;;;;;;;3.70;0.95;;;;;;;;;;5074192;28;20028;-63
2023/03/27 02:10:58;;;;;;;2.58;0.70;;;;;;;;;;5073454;28;20519;-63
2023/03/27 02:13:49;;;;;;;3.10;1.42;;;;;;;;;;5074319;28;20451;-63
2023/03/27 02:16:17;;;;;;;3.40;1.15;;;;;;;;;;5074014;28;20434;-62
2023/03/27 02:18:46;;;;;;;2.78;0.90;;;;;;;;;;5073857;28;20025;-63
2023/03/27 02:21:13;;;;;;;2.95;1.05;;;;;;;;;;5073577;28;20109;-64
2023/03/27 02:23:39;;;;;;;1.98;0.90;;;;;;;;;;5073596;28;20378;-63
2023/03/27 02:26:06;;;;;;;3.47;1.15;;;;;;;;;;5073991;28;20047;-63
2023/03/27 02:28:50;;;;;;;3.38;1.08;;;;;;;;;;5074248;28;20078;-62
2023/03/27 02:31:35;;;;;;;2.65;1.10;;;;;;;;;;5073816;28;20473;-63
2023/03/27 02:34:24;;;;;;;3.28;0.70;;;;;;;;;;5074171;28;20028;-63
2023/03/27 02:37:08;;;;;;;2.45;0.73;;;;;;;;;;5063507;28;20158;-64
2023/03/27 02:39:38;;;;;;;3.25;1.33;;;;;;;;;;5073542;28;20111;-64
2023/03/27 02:42:10;;;;;;;5.32;1.20;;;;;;;;;;5073965;28;20025;-63
2023/03/27 02:44:44;;;;;;;3.28;0.90;;;;;;;;;;5073363;28;20028;-63
2023/03/27 02:47:19;;;;;;;3.80;1.25;;;;;;;;;;5073526;28;20163;-63
2023/03/27 02:49:51;;;;;;;2.85;1.10;;;;;;;;;;5073333;28;20019;-63
2023/03/27 02:52:49;;;;;;;1.55;0.77;;;;;;;;;;5073423;28;20025;-64
2023/03/27 02:55:18;;;;;;;3.08;0.80;;;;;;;;;;5052725;28;20037;-63
2023/03/27 02:57:48;;;;;;;2.20;0.70;;;;;;;;;;5053135;28;20083;-65
2023/03/27 03:00:22;;;;;;;2.63;1.02;;;;;;;;;;5053194;28;20029;-63
2023/03/27 03:02:49;;;;;;;2.85;0.90;;;;;;;;;;5053036;28;20112;-64
2023/03/27 03:05:20;;;;;;;2.95;0.93;;;;;;;;;;5053066;28;20055;-63
2023/03/27 03:07:47;;;;;;;2.38;0.90;;;;;;;;;;5060189;28;20032;-64
2023/03/27 03:10:14;;;;;;;2.22;0.77;;;;;;;;;;5073111;28;20021;-63
2023/03/27 03:12:41;;;;;;;1.60;0.80;;;;;;;;;;5072805;28;20105;-64
2023/03/27 03:15:07;;;;;;;2.47;0.82;;;;;;;;;;5073018;28;20028;-64
2023/03/27 03:17:34;;;;;;;3.00;0.82;;;;;;;;;;5073282;28;20032;-63
2023/03/27 03:20:00;;;;;;;2.10;0.80;;;;;;;;;;5072698;28;20072;-63
2023/03/27 03:22:26;;;;;;;2.63;0.90;;;;;;;;;;5072600;28;20029;-62
2023/03/27 03:24:52;;;;;;;2.75;0.80;;;;;;;;;;5072577;28;20043;-64
2023/03/27 03:27:21;;;;;;;2.42;0.88;;;;;;;;;;5072759;28;20056;-63
2023/03/27 03:29:47;;;;;;;4.43;1.00;;;;;;;;;;5072406;28;20024;-63
2023/03/27 03:32:13;;;;;;;1.98;0.70;;;;;;;;;;5072715;28;20025;-63
2023/03/27 03:34:45;;;;;;;1.70;0.70;;;;;;;;;;5072506;28;20020;-62
2023/03/27 03:37:11;;;;;;;1.88;0.93;;;;;;;;;;5072272;28;20035;-63
2023/03/27 03:39:37;;;;;;;1.98;0.80;;;;;;;;;;5072171;28;20028;-64
2023/03/27 03:42:03;;;;;;;2.55;1.00;;;;;;;;;;5072559;28;20024;-63
2023/03/27 03:44:30;;;;;;;3.40;0.70;;;;;;;;;;5072594;28;20361;-62
2023/03/27 03:46:56;;;;;;;1.70;0.75;;;;;;;;;;5071674;28;20408;-63
2023/03/27 03:49:22;;;;;;;1.65;0.70;;;;;;;;;;5072362;28;20036;-63
2023/03/27 03:51:48;;;;;;;2.85;1.00;;;;;;;;;;5072097;28;20094;-64
2023/03/27 03:54:14;;;;;;;2.50;0.80;;;;;;;;;;5072154;28;20028;-63
2023/03/27 03:56:40;;;;;;;3.20;0.95;;;;;;;;;;5071768;28;20017;-63
2023/03/27 03:59:07;;;;;;;1.67;0.80;;;;;;;;;;5072206;28;20032;-63
2023/03/27 04:01:33;;;;;;;2.55;1.00;;;;;;;;;;5072010;28;20017;-63
2023/03/27 04:04:00;;;;;;;2.03;0.77;;;;;;;;;;5070406;28;20078;-64
2023/03/27 04:06:29;;;;;;;2.30;0.80;;;;;;;;;;5071922;28;20036;-63
2023/03/27 04:08:56;;;;;;;4.65;0.80;;;;;;;;;;5071734;28;20032;-65
2023/03/27 04:11:22;;;;;;;2.72;0.90;;;;;;;;;;5071873;28;20032;-64
2023/03/27 04:13:49;;;;;;;2.25;0.70;;;;;;;;;;5071608;28;20024;-62
2023/03/27 04:16:15;;;;;;;2.03;0.80;;;;;;;;;;5071544;28;20023;-63
2023/03/27 04:18:41;;;;;;;1.98;0.90;;;;;;;;;;5071605;28;20028;-64
2023/03/27 04:21:13;;;;;;;1.73;0.55;;;;;;;;;;5071068;28;20024;-63
2023/03/27 04:23:40;;;;;;;2.05;0.60;;;;;;;;;;5071307;28;20029;-63
2023/03/27 04:26:06;;;;;;;1.83;0.80;;;;;;;;;;5071763;28;20119;-63
2023/03/27 04:28:33;;;;;;;2.25;0.73;;;;;;;;;;5071795;28;20465;-63
2023/03/27 04:31:05;;;;;;;3.35;0.88;;;;;;;;;;5071062;28;20138;-63
2023/03/27 04:33:33;;;;;;;2.22;0.70;;;;;;;;;;5071743;28;20028;-63
2023/03/27 04:35:59;;;;;;;1.55;0.63;;;;;;;;;;5071191;28;20429;-64
2023/03/27 04:38:26;;;;;;;1.63;0.50;;;;;;;;;;5070974;28;20166;-63
2023/03/27 04:40:53;;;;;;;1.08;0.57;;;;;;;;;;5071109;28;20020;-63
2023/03/27 04:43:19;;;;;;;2.08;0.60;;;;;;;;;;5071316;28;20021;-63
2023/03/27 04:45:48;;;;;;;2.63;0.80;;;;;;;;;;5071082;28;20040;-63
2023/03/27 04:48:14;;;;;;;1.50;0.68;;;;;;;;;;5071257;28;20095;-63
2023/03/27 04:50:43;;;;;;;3.15;0.80;;;;;;;;;;5071057;28;20082;-63
2023/03/27 04:53:09;;;;;;;2.03;0.68;;;;;;;;;;5071048;28;20024;-63
2023/03/27 04:55:38;;;;;;;4.72;0.85;;;;;;;;;;5071293;28;20106;-64
2023/03/27 04:58:05;;;;;;;1.63;0.80;;;;;;;;;;5071394;28;20056;-63
2023/03/27 05:00:31;;;;;;;2.35;0.80;;;;;;;;;;5070841;28;20388;-63
2023/03/27 05:02:59;;;;;;;2.08;0.70;;;;;;;;;;5070664;28;20396;-63
2023/03/27 05:05:25;;;;;;;2.20;0.90;;;;;;;;;;5070975;28;20063;-63
2023/03/27 05:07:51;;;;;;;2.42;0.90;;;;;;;;;;5070958;28;20024;-62
2023/03/27 05:10:17;;;;;;;1.77;0.65;;;;;;;;;;5070520;28;20028;-62
2023/03/27 05:12:44;;;;;;;1.33;0.40;;;;;;;;;;5070839;28;20028;-64
2023/03/27 05:15:11;;;;;;;2.88;1.17;;;;;;;;;;5071062;28;20028;-63
2023/03/27 05:17:40;;;;;;;1.27;0.60;;;;;;;;;;5069505;28;20025;-65
2023/03/27 05:20:07;;;;;;;4.53;0.95;;;;;;;;;;5070845;28;20033;-63
2023/03/27 05:22:34;;;;;;;1.50;0.57;;;;;;;;;;5071229;28;20042;-63
2023/03/27 05:25:00;;;;;;;1.33;0.60;;;;;;;;;;5070123;28;20036;-63
2023/03/27 05:27:26;;;;;;;1.98;0.70;;;;;;;;;;5070672;28;20149;-65
2023/03/27 05:29:52;;;;;;;2.13;0.90;;;;;;;;;;5070752;28;20036;-61
2023/03/27 05:32:18;;;;;;;1.88;0.73;;;;;;;;;;5071010;28;20033;-61
2023/03/27 05:34:44;;;;;;;2.90;0.77;;;;;;;;;;5074287;28;20028;-62
2023/03/27 05:37:10;;;;;;;1.48;0.60;;;;;;;;;;5074902;28;20516;-61
2023/03/27 05:39:36;;;;;;;2.30;0.80;;;;;;;;;;5074669;28;20492;-61
2023/03/27 05:42:03;;;;;;;2.15;0.70;;;;;;;;;;5074799;28;20032;-64
2023/03/27 05:44:28;;;;;;;1.77;0.60;;;;;;;;;;5070290;28;20029;-63
2023/03/27 05:46:55;;;;;;;2.67;0.70;;;;;;;;;;5054623;28;20369;-61
2023/03/27 05:49:21;;;;;;;2.92;0.90;;;;;;;;;;5054641;28;20071;-64
2023/03/27 05:51:47;;;;;;;2.42;0.80;;;;;;;;;;5054615;28;20056;-62
2023/03/27 05:54:13;;;;;;;3.88;0.70;;;;;;;;;;5054825;28;20021;-61
2023/03/27 05:56:40;;;;;;;2.38;0.80;;;;;;;;;;5058067;28;20116;-62
2023/03/27 05:59:06;;;;;;;3.92;0.82;;;;;;;;;;5071498;28;20450;-62
2023/03/27 06:01:34;;;;;;;4.20;1.63;;;;;;;;;;5070792;28;20081;-61
2023/03/27 06:04:00;;;;;;;4.25;2.40;;;;;;;;;;5064234;28;20052;-66
2023/03/27 06:06:26;;;;;;;7.32;2.50;;;;;;;;;;5073900;28;20033;-67
2023/03/27 06:08:52;;;;;;;7.10;2.67;;;;;;;;;;5070506;28;20435;-65
2023/03/27 06:11:19;;;;;;;6.70;2.75;;;;;;;;;;5070300;28;20060;-64
2023/03/27 06:13:45;;;;;;;4.38;2.85;;;;;;;;;;5073752;28;20502;-68
2023/03/27 06:16:11;;;;;;;5.57;3.10;;;;;;;;;;5073982;28;20031;-66
2023/03/27 06:18:37;;;;;;;5.88;2.85;;;;;;;;;;5073798;28;20024;-66
2023/03/27 06:21:03;;;;;;;4.72;2.70;;;;;;;;;;5074000;28;20146;-63
2023/03/27 06:23:30;;;;;;;5.50;2.83;;;;;;;;;;5073890;28;20035;-62
2023/03/27 06:25:57;;;;;;;4.35;2.65;;;;;;;;;;5072663;28;20044;-62
2023/03/27 06:28:23;;;;;;;4.43;2.70;;;;;;;;;;5071691;28;20029;-62
2023/03/27 06:30:49;;;;;;;4.22;2.92;;;;;;;;;;5073646;28;20554;-62
2023/03/27 06:33:15;;;;;;;5.85;2.72;;;;;;;;;;5074023;28;20379;-63
2023/03/27 06:35:42;;;;;;;4.47;2.80;;;;;;;;;;5073194;28;20103;-62
2023/03/27 06:38:08;;;;;;;4.05;2.67;;;;;;;;;;5073937;28;20036;-62
2023/03/27 06:40:35;;;;;;;6.68;2.17;;;;;;;;;;5070812;28;20434;-62
2023/03/27 06:43:02;;;;;;;5.22;2.60;;;;;;;;;;5066763;28;20488;-61
2023/03/27 06:45:36;;;;;;;4.60;2.90;;;;;;;;;;5073574;28;20036;-62
2023/03/27 06:48:03;;;;;;;4.22;2.58;;;;;;;;;;5073841;28;20119;-64
2023/03/27 06:50:30;;;;;;;4.53;2.65;;;;;;;;;;5073615;28;20028;-63
2023/03/27 06:52:56;;;;;;;4.25;2.20;;;;;;;;;;5073364;28;20481;-65
2023/03/27 06:55:23;;;;;;;4.03;2.15;;;;;;;;;;5073475;28;20036;-62
2023/03/27 06:57:50;;;;;;;5.40;1.98;;;;;;;;;;5073075;28;20065;-62
2023/03/27 07:00:18;;;;;;;3.72;2.13;;;;;;;;;;5073025;28;20485;-62
2023/03/27 07:02:45;;;;;;;4.72;2.33;;;;;;;;;;5073299;28;20388;-63
2023/03/27 07:05:11;;;;;;;4.63;2.10;;;;;;;;;;5073131;28;20503;-64
2023/03/27 07:07:37;;;;;;;4.25;2.35;;;;;;;;;;5073050;28;20050;-62
2023/03/27 07:10:03;;;;;;;8.32;2.55;;;;;;;;;;5073097;28;20021;-61
2023/03/27 07:12:29;;;;;;;4.45;2.42;;;;;;;;;;5073095;28;20021;-62
2023/03/27 07:14:56;;;;;;;4.05;2.00;;;;;;;;;;5073046;28;20032;-61
2023/03/27 07:17:22;;;;;;;5.88;2.33;;;;;;;;;;5072797;28;20078;-61
2023/03/27 07:19:47;;;;;;;4.40;1.65;;;;;;;;;;5072470;28;20086;-62
2023/03/27 07:22:13;;;;;;;3.40;1.90;;;;;;;;;;5073235;28;20024;-63
2023/03/27 07:24:40;;;;;;;4.25;2.00;;;;;;;;;;5072406;28;20032;-62
2023/03/27 07:27:06;;;;;;;3.78;1.75;;;;;;;;;;5072502;28;20063;-68
2023/03/27 07:29:32;;;;;;;3.83;2.03;;;;;;;;;;5073171;28;20092;-69
2023/03/27 07:31:58;;;;;;;9.77;1.85;;;;;;;;;;5073086;28;20086;-65
2023/03/27 07:34:24;;;;;;;4.28;1.95;;;;;;;;;;5072759;28;20103;-68
2023/03/27 07:36:50;;;;;;;3.65;1.55;;;;;;;;;;5072107;28;20032;-67
2023/03/27 07:39:16;;;;;;;5.13;1.80;;;;;;;;;;5072837;28;20032;-66
2023/03/27 07:41:42;;;;;;;7.40;1.73;;;;;;;;;;5072365;28;20104;-64
2023/03/27 07:44:08;;;;;;;7.72;1.95;;;;;;;;;;5082526;28;20024;-65
2023/03/27 07:46:34;;;;;;;4.22;1.58;;;;;;;;;;5073048;28;20162;-65
2023/03/27 07:49:00;;;;;;;8.10;1.80;;;;;;;;;;5073030;28;20048;-61
2023/03/27 07:51:27;;;;;;;8.63;1.95;;;;;;;;;;5072379;28;20498;-66
2023/03/27 07:53:54;;;;;;;7.45;1.80;;;;;;;;;;5072290;28;20071;-68
2023/03/27 07:56:22;;;;;;;7.75;1.70;;;;;;;;;;5071563;28;20485;-66
2023/03/27 07:58:48;;;;;;;11.95;2.17;;;;;;;;;;5071994;28;20358;-65
2023/03/27 08:01:14;;;;;;;6.22;1.60;;;;;;;;;;5072283;28;20032;-63
2023/03/27 08:03:40;;;;;;;7.15;1.90;;;;;;;;;;5071729;28;20129;-61
2023/03/27 08:06:07;;;;;;;6.88;1.75;;;;;;;;;;5070909;28;20040;-64
2023/03/27 08:08:33;;;;;;;5.85;1.90;;;;;;;;;;5072377;28;20484;-65
2023/03/27 08:11:00;;;;;;;11.07;1.75;;;;;;;;;;5072082;28;20024;-73
2023/03/27 08:13:26;;;;;;;9.32;2.13;;;;;;;;;;5071919;28;20078;-73
2023/03/27 08:16:01;;;;;;;9.35;1.70;;;;;;;;;;5071874;28;20029;-62
2023/03/27 08:18:27;;;;;;;10.63;1.80;;;;;;;;;;5073018;28;20084;-65
2023/03/27 08:20:57;;;;;;;10.48;1.92;;;;;;;;;;5079635;28;20354;-68
2023/03/27 08:23:26;;;;;;;4.75;1.75;;;;;;;;;;5071911;28;20031;-65
2023/03/27 08:25:52;;;;;;;7.85;1.40;;;;;;;;;;5071365;28;20052;-72
2023/03/27 08:28:19;;;;;;;5.75;1.95;;;;;;;;;;5071798;28;20024;-71
2023/03/27 08:30:45;;;;;;;11.82;1.55;;;;;;;;;;5071532;28;20392;-62
2023/03/27 08:33:11;;;;;;;8.85;1.77;;;;;;;;;;5071925;28;20032;-62
2023/03/27 08:35:37;;;;;;;8.18;1.70;;;;;;;;;;5071414;28;20401;-62
2023/03/27 08:38:03;;;;;;;5.97;2.03;;;;;;;;;;5071756;28;20081;-60
2023/03/27 08:40:32;;;;;;;4.47;1.80;;;;;;;;;;5071700;28;20031;-63
2023/03/27 08:43:03;;;;;;;4.95;1.88;;;;;;;;;;5070929;28;20099;-66
2023/03/27 08:45:31;;;;;;;6.30;1.70;;;;;;;;;;5073640;28;20043;-64
2023/03/27 08:48:06;;;;;;;4.32;1.38;;;;;;;;;;5070999;28;20021;-61
2023/03/27 08:50:32;;;;;;;;;;;;;;;;;;5071873;28;20016;-60
2023/03/27 08:52:59;;;;;;;7.63;1.77;;;;;;;;;;5071267;28;19911;-61
2023/03/27 08:55:33;;;;;;;5.60;1.40;;;;;;;;;;5070268;28;20040;-61
2023/03/27 08:57:59;;;;;;;5.78;1.40;;;;;;;;;;5070798;28;20074;-65
2023/03/27 09:00:30;;;;;;;5.45;1.52;;;;;;;;;;5070715;28;20483;-67
2023/03/27 09:03:00;;;;;;;6.05;1.38;;;;;;;;;;5065938;28;20032;-65
2023/03/27 09:05:29;;;;;;;6.88;1.85;;;;;;;;;;5070226;28;20028;-64
2023/03/27 09:07:58;;;;;;;3.30;1.35;;;;;;;;;;5067824;28;20035;-62
2023/03/27 09:10:24;;;;;;;4.20;1.27;;;;;;;;;;5070304;28;20025;-64
2023/03/27 09:12:59;;;;;;;4.32;1.55;;;;;;;;;;5069329;28;20077;-62
2023/03/27 09:15:28;;;;;;;3.50;1.40;;;;;;;;;;5065477;28;20024;-63
2023/03/27 09:18:02;;;;;;;6.63;1.80;;;;;;;;;;5065425;28;20048;-68
2023/03/27 09:20:34;;;;;;;3.25;1.27;;;;;;;;;;5065155;28;20032;-65
2023/03/27 09:23:09;;;;;;;5.18;1.67;;;;;;;;;;5069233;28;20033;-60
2023/03/27 09:25:37;;;;;;;5.38;1.38;;;;;;;;;;5050707;28;20037;-62
2023/03/27 09:28:03;;;;;;;4.07;1.13;;;;;;;;;;5065011;28;20531;-61
2023/03/27 09:30:31;;;;;;;4.18;1.30;;;;;;;;;;5067077;28;20029;-67
2023/03/27 09:32:58;;;;;;;4.07;1.33;;;;;;;;;;5065123;28;20062;-64
2023/03/27 09:35:25;;;;;;;5.15;1.35;;;;;;;;;;5064630;28;20545;-62
2023/03/27 09:38:02;;;;;;;2.75;1.15;;;;;;;;;;5064610;28;20036;-61
2023/03/27 09:40:41;;;;;;;4.28;1.65;;;;;;;;;;5067130;28;20395;-61
2023/03/27 09:43:09;;;;;;;4.70;1.38;;;;;;;;;;5064985;28;20021;-61
2023/03/27 09:45:37;;;;;;;3.10;1.20;;;;;;;;;;5065318;28;20531;-61
2023/03/27 09:48:05;;;;;;;6.45;1.10;;;;;;;;;;5070765;28;20103;-60
2023/03/27 09:50:33;;;;;;;3.92;1.08;;;;;;;;;;5070776;28;20025;-61
2023/03/27 09:53:10;;;;;;;3.85;1.10;;;;;;;;;;5070189;28;20025;-67
2023/03/27 09:55:44;;;;;;;4.20;1.13;;;;;;;;;;5067706;28;20024;-65
2023/03/27 09:58:17;;;;;;;2.13;0.85;;;;;;;;;;5070400;28;20063;-63
2023/03/27 10:00:43;;;;;;;2.60;0.98;;;;;;;;;;5066859;28;20024;-67
2023/03/27 10:03:16;;;;;;;4.72;0.93;;;;;;;;;;5064370;28;20029;-65
2023/03/27 10:05:44;;;;;;;3.70;1.08;;;;;;;;;;5065053;28;20147;-62
2023/03/27 10:08:51;;;;;;;6.90;1.60;;;;;;;;;;5064253;28;20119;-65
2023/03/27 10:11:19;;;;;;;2.00;1.02;;;;;;;;;;5042420;28;20029;-65
2023/03/27 10:13:49;;;;;;;5.10;1.77;;;;;;;;;;5042071;28;20041;-64
2023/03/27 10:16:16;;;;;;;3.58;1.25;;;;;;;;;;5053280;28;20777;-66
2023/03/27 10:18:47;;;;;;;2.88;1.20;;;;;;;;;;5065611;28;20021;-62
2023/03/27 10:21:32;;;;;;;4.95;1.60;;;;;;;;;;5068378;28;20490;-64
2023/03/27 10:24:00;;;;;;;2.65;1.00;;;;;;;;;;5067770;28;20029;-62
2023/03/27 10:26:27;;;;;;;3.88;1.30;;;;;;;;;;5070211;28;20032;-63
2023/03/27 10:28:57;;;;;;;2.78;1.27;;;;;;;;;;5072151;28;20024;-63
2023/03/27 10:31:23;;;;;;;5.28;1.45;;;;;;;;;;5072436;28;20088;-63
2023/03/27 10:33:49;;;;;;;2.40;1.02;;;;;;;;;;5069858;28;20024;-62
2023/03/27 10:36:16;;;;;;;4.13;1.10;;;;;;;;;;5068491;28;20476;-62
2023/03/27 10:38:43;;;;;;;3.10;1.30;;;;;;;;;;5067063;28;20500;-61
2023/03/27 10:41:12;;;;;;;4.80;1.63;;;;;;;;;;5072439;28;20116;-60
2023/03/27 10:43:40;;;;;;;2.53;0.82;;;;;;;;;;5073355;28;20391;-62
2023/03/27 10:46:14;;;;;;;4.20;1.58;;;;;;;;;;5071396;28;20401;-61
2023/03/27 10:48:46;;;;;;;3.78;1.30;;;;;;;;;;5066811;28;20036;-65
2023/03/27 10:51:18;;;;;;;3.40;1.48;;;;;;;;;;5066806;28;20105;-61
2023/03/27 10:53:47;;;;;;;3.28;1.20;;;;;;;;;;5067586;28;20107;-60
2023/03/27 10:56:19;;;;;;;3.08;1.40;;;;;;;;;;5068221;28;20063;-60
2023/03/27 10:58:55;;;;;;;3.47;1.30;;;;;;;;;;5068947;28;20028;-61
2023/03/27 11:01:25;;;;;;;2.50;1.00;;;;;;;;;;5068283;28;20377;-60
2023/03/27 11:04:03;;;;;;;3.97;1.58;;;;;;;;;;5067000;28;20081;-61
2023/03/27 11:06:35;;;;;;;3.00;1.05;;;;;;;;;;5066329;28;20064;-64
2023/03/27 11:09:15;;;;;;;2.58;1.20;;;;;;;;;;5069264;28;20027;-67
2023/03/27 11:11:50;;;;;;;5.10;1.80;;;;;;;;;;5069526;28;20024;-62
2023/03/27 11:14:19;;;;;;;5.15;1.70;;;;;;;;;;5068082;28;20020;-63
2023/03/27 11:16:48;;;;;;;4.10;1.10;;;;;;;;;;5072730;28;20047;-63
2023/03/27 11:19:32;;;;;;;4.93;1.35;;;;;;;;;;5072230;28;20446;-63
2023/03/27 11:22:11;;;;;;;5.13;1.40;;;;;;;;;;5065322;28;20059;-61
2023/03/27 11:24:46;;;;;;;3.72;1.58;;;;;;;;;;5067648;28;20016;-64
2023/03/27 11:27:15;;;;;;;4.03;1.40;;;;;;;;;;5069814;28;20047;-61
2023/03/27 11:29:57;;;;;;;2.97;1.27;;;;;;;;;;5067322;28;20025;-60
2023/03/27 11:32:29;;;;;;;3.05;1.42;;;;;;;;;;5067464;28;20043;-61
2023/03/27 11:34:58;;;;;;;4.25;1.00;;;;;;;;;;5066002;28;20243;-61
2023/03/27 11:37:33;;;;;;;4.35;1.15;;;;;;;;;;5066521;28;20069;-60
2023/03/27 11:40:08;;;;;;;4.18;1.60;;;;;;;;;;5068928;28;20036;-61
2023/03/27 11:42:36;;;;;;;2.72;1.20;;;;;;;;;;5066231;28;20520;-62
2023/03/27 11:45:06;;;;;;;3.60;1.40;;;;;;;;;;5066294;28;20083;-62
2023/03/27 11:47:32;;;;;;;4.47;1.27;;;;;;;;;;5071103;28;20075;-62
2023/03/27 11:50:07;;;;;;;4.20;1.63;;;;;;;;;;5065769;28;20429;-62
2023/03/27 11:52:42;;;;;;;4.28;1.33;;;;;;;;;;5067937;28;20020;-61
2023/03/27 11:55:14;;;;;;;3.80;1.55;;;;;;;;;;5065834;28;20446;-61
2023/03/27 11:58:06;;;;;;;2.30;1.10;;;;;;;;;;5068558;28;20020;-61
2023/03/27 12:00:57;;;;;;;4.30;1.48;;;;;;;;;;5065844;28;20042;-60
2023/03/27 12:03:29;;;;;;;3.78;1.52;;;;;;;;;;5061025;28;20043;-60
2023/03/27 12:05:56;;;;;;;3.55;1.30;;;;;;;;;;5065990;28;20055;-61
2023/03/27 12:08:26;;;;;;;4.15;1.23;;;;;;;;;;5065780;28;20098;-60
2023/03/27 12:10:53;;;;;;;3.15;1.40;;;;;;;;;;5065660;28;21376;-63
2023/03/27 12:13:38;;;;;;;4.63;1.45;;;;;;;;;;5065452;28;20028;-61
2023/03/27 12:16:23;;;;;;;6.57;1.48;;;;;;;;;;5064566;28;21240;-61
2023/03/27 12:19:07;;;;;;;3.67;1.60;;;;;;;;;;5064941;28;20036;-60
2023/03/27 12:21:48;;;;;;;4.88;1.65;;;;;;;;;;5065781;28;20032;-62
2023/03/27 12:24:14;;;;;;;5.68;1.95;;;;;;;;;;5065256;28;20025;-61
2023/03/27 12:26:59;;;;;;;2.45;1.25;;;;;;;;;;5067945;28;20124;-60
2023/03/27 12:29:44;;;;;;;2.80;1.23;;;;;;;;;;5066211;28;20102;-61
2023/03/27 12:32:10;;;;;;;4.55;1.60;;;;;;;;;;5065309;28;20025;-62
2023/03/27 12:34:57;;;;;;;2.47;1.20;;;;;;;;;;5065646;28;20040;-61
2023/03/27 12:37:29;;;;;;;3.50;1.40;;;;;;;;;;5065289;28;20031;-64
2023/03/27 12:39:59;;;;;;;4.75;1.58;;;;;;;;;;5068142;28;20028;-61
2023/03/27 12:42:53;;;;;;;4.55;1.48;;;;;;;;;;5064918;28;20311;-65
2023/03/27 12:45:25;;;;;;;4.72;1.67;;;;;;;;;;5065006;28;20119;-64
2023/03/27 12:48:10;;;;;;;4.78;1.77;;;;;;;;;;5071127;28;20393;-64
2023/03/27 12:50:54;;;;;;;4.30;1.67;;;;;;;;;;5071260;28;20035;-61
2023/03/27 12:53:30;;;;;;;3.58;1.42;;;;;;;;;;5066654;28;20025;-63
2023/03/27 12:56:18;;;;;;;5.70;2.05;;;;;;;;;;5070898;28;20105;-64
2023/03/27 12:58:45;;;;;;;4.65;1.50;;;;;;;;;;5068984;28;20067;-64
2023/03/27 13:01:17;;;;;;;2.85;1.02;;;;;;;;;;5065198;28;20039;-61
2023/03/27 13:03:56;;;;;;;3.75;1.30;;;;;;;;;;5065488;28;20047;-63
2023/03/27 13:06:29;;;;;;;3.78;1.20;;;;;;;;;;5065897;28;20769;-63
2023/03/27 13:08:58;;;;;;;3.92;1.30;;;;;;;;;;5066178;28;20102;-62
2023/03/27 13:11:24;;;;;;;2.97;1.40;;;;;;;;;;5058065;28;20036;-61
2023/03/27 13:14:09;;;;;;;4.55;1.65;;;;;;;;;;5065095;28;20024;-61
2023/03/27 13:16:55;;;;;;;4.15;1.40;;;;;;;;;;5064690;28;20025;-61
2023/03/27 13:19:39;;;;;;;3.75;1.58;;;;;;;;;;5065193;28;20431;-61
2023/03/27 13:22:11;;;;;;;6.13;1.70;;;;;;;;;;5064632;28;20028;-63
2023/03/27 13:24:40;;;;;;;4.20;1.20;;;;;;;;;;5068303;28;20067;-62
2023/03/27 13:27:15;;;;;;;6.35;1.55;;;;;;;;;;5070742;28;20036;-61
2023/03/27 13:29:42;;;;;;;3.88;1.38;;;;;;;;;;5066753;28;20023;-64
2023/03/27 13:32:26;;;;;;;3.63;1.40;;;;;;;;;;5064706;28;20041;-61
2023/03/27 13:35:03;;;;;;;4.55;1.27;;;;;;;;;;5065446;28;20033;-61
2023/03/27 13:37:29;;;;;;;3.65;1.33;;;;;;;;;;5066546;28;20021;-63
2023/03/27 13:39:56;;;;;;;3.50;1.30;;;;;;;;;;5066731;28;20392;-66
2023/03/27 13:42:27;;;;;;;5.78;1.40;;;;;;;;;;5064649;28;20039;-63
2023/03/27 13:44:57;;;;;;;4.88;1.38;;;;;;;;;;5064977;28;20082;-69
2023/03/27 13:47:23;;;;;;;2.80;1.38;;;;;;;;;;5064562;28;20078;-64
2023/03/27 13:50:06;;;;;;;3.17;1.52;;;;;;;;;;5064346;28;20052;-65
2023/03/27 13:52:51;;;;;;;4.90;1.40;;;;;;;;;;5065330;28;20036;-66
2023/03/27 13:55:28;;;;;;;2.90;1.07;;;;;;;;;;5069252;28;20044;-61
2023/03/27 13:58:06;;;;;;;3.45;1.40;;;;;;;;;;5072233;28;20028;-62
2023/03/27 14:00:47;;;;;;;4.63;1.48;;;;;;;;;;5074613;28;20082;-62
2023/03/27 14:03:25;;;;;;;4.50;1.67;;;;;;;;;;5071314;28;20024;-60
2023/03/27 14:06:10;;;;;;;4.45;1.70;;;;;;;;;;5066606;28;20114;-61
2023/03/27 14:08:51;;;;;;;5.65;1.42;;;;;;;;;;5067973;28;20027;-62
2023/03/27 14:11:24;;;;;;;4.50;1.70;;;;;;;;;;5068152;28;20043;-64
2023/03/27 14:14:09;;;;;;;2.22;1.10;;;;;;;;;;5067867;28;20400;-61
2023/03/27 14:16:40;;;;;;;4.22;1.70;;;;;;;;;;5067382;28;20017;-61
2023/03/27 14:19:06;;;;;;;3.80;1.42;;;;;;;;;;5068506;28;20547;-61
2023/03/27 14:21:48;;;;;;;4.43;1.98;;;;;;;;;;5068145;28;20036;-63
2023/03/27 14:24:17;;;;;;;3.38;1.33;;;;;;;;;;5067957;28;20508;-63
2023/03/27 14:26:44;;;;;;;3.45;1.65;;;;;;;;;;5069446;28;20036;-61
2023/03/27 14:29:10;;;;;;;4.88;1.58;;;;;;;;;;5070932;28;20099;-61
2023/03/27 14:31:37;;;;;;;4.65;1.30;;;;;;;;;;5072807;28;20024;-62
2023/03/27 14:34:09;;;;;;;3.17;1.33;;;;;;;;;;5074168;28;20465;-61
2023/03/27 14:36:41;;;;;;;4.38;1.58;;;;;;;;;;5068781;28;20488;-61
2023/03/27 14:39:21;;;;;;;5.50;1.92;;;;;;;;;;5071040;28;20035;-63
2023/03/27 14:41:48;;;;;;;4.65;1.90;;;;;;;;;;5067263;28;21616;-66
2023/03/27 14:44:14;;;;;;;2.55;1.33;;;;;;;;;;5068565;28;20460;-64
2023/03/27 14:46:44;;;;;;;4.28;1.60;;;;;;;;;;5066781;28;20125;-65
2023/03/27 14:49:12;;;;;;;3.40;1.35;;;;;;;;;;5067629;28;20029;-65
2023/03/27 14:51:40;;;;;;;5.72;1.75;;;;;;;;;;5067284;28;20490;-64
2023/03/27 14:54:10;;;;;;;6.32;1.60;;;;;;;;;;5068019;28;20032;-66
2023/03/27 14:56:40;;;;;;;4.57;1.40;;;;;;;;;;5067644;28;20036;-61
2023/03/27 14:59:10;;;;;;;5.28;1.60;;;;;;;;;;5069483;28;20119;-63
2023/03/27 15:01:36;;;;;;;5.63;2.05;;;;;;;;;;5067766;28;20508;-61
2023/03/27 15:04:02;;;;;;;4.28;1.52;;;;;;;;;;5069304;28;20060;-63